Terminal Aerodrome Forecast
Issued by NWS Twin Cities, MN

Home | Current Version | Previous Version | Graphics & Text | Print | Product List | Glossary On
Versions: 1 2 3 4 5 6 7 8 9 10 11 12 13 14
719
FTUS43 KMPX 221138
TAFEAU
TAF
KEAU 221138Z 2212/2312 18007KT P6SM FEW250
     FM221600 19012G19KT P6SM SCT100 SCT250
     FM221900 20015G23KT P6SM SCT080 SCT250
     FM230100 18010KT P6SM SKC=

USA.gov is the U.S. government's official web portal to all federal, state and local government web resources and services.